Time;durP1;ratioP1;P1;durP2;ratioP2;P2;SDS_P1;SDS_P2;PMS_P1;PMS_P2;Temp;Humidity;BMP_temperature;BMP_pressure;BME280_temperature;BME280_humidity;BME280_pressure;Samples;Min_cycle;Max_cycle;Signal;HPM_P1;HPM_P2
2022/09/16 00:00:58;;;;;;;;;;;21.60;42.00;;;;;;492207;240;1173;-51
2022/09/16 00:02:59;;;;;;;;;;;21.60;41.90;;;;;;492137;240;1189;-51
2022/09/16 00:05:00;;;;;;;;;;;21.60;41.90;;;;;;491715;240;1200;-51
2022/09/16 00:07:02;;;;;;;;;;;21.60;41.90;;;;;;492205;240;1294;-51
2022/09/16 00:09:03;;;;;;;;;;;21.60;41.90;;;;;;491935;240;1200;-50
2022/09/16 00:11:04;;;;;;;;;;;21.60;41.90;;;;;;491824;240;1299;-51
2022/09/16 00:13:06;;;;;;;;;;;21.60;41.90;;;;;;491842;240;1302;-51
2022/09/16 00:15:07;;;;;;;;;;;21.50;41.90;;;;;;491727;240;2199;-50
2022/09/16 00:17:08;;;;;;;;;;;21.50;42.00;;;;;;492078;240;1255;-52
2022/09/16 00:19:10;;;;;;;;;;;21.60;42.00;;;;;;491810;240;1308;-50
2022/09/16 00:21:11;;;;;;;;;;;21.60;41.90;;;;;;492166;240;1254;-51
2022/09/16 00:23:12;;;;;;;;;;;21.60;41.90;;;;;;492201;240;1298;-51
2022/09/16 00:25:14;;;;;;;;;;;21.60;41.90;;;;;;491938;240;1389;-51
2022/09/16 00:27:15;;;;;;;;;;;21.60;41.80;;;;;;492162;240;1212;-51
2022/09/16 00:29:16;;;;;;;;;;;21.60;41.90;;;;;;491710;240;1327;-51
2022/09/16 00:31:18;;;;;;;;;;;21.60;41.80;;;;;;491728;240;1318;-51
2022/09/16 00:33:19;;;;;;;;;;;21.50;41.80;;;;;;492210;240;1340;-51
2022/09/16 00:35:21;;;;;;;;;;;21.60;41.90;;;;;;492170;240;2153;-51
2022/09/16 00:37:22;;;;;;;;;;;21.60;41.80;;;;;;491760;240;1644;-51
2022/09/16 00:39:23;;;;;;;;;;;21.60;41.90;;;;;;492177;240;1370;-50
2022/09/16 00:41:24;;;;;;;;;;;21.60;41.70;;;;;;491742;240;1300;-51
2022/09/16 00:43:26;;;;;;;;;;;21.60;41.80;;;;;;492233;240;1255;-50
2022/09/16 00:45:30;;;;;;;;;;;21.60;41.80;;;;;;491848;240;1198;-51
2022/09/16 00:47:28;;;;;;;;;;;21.60;41.80;;;;;;491815;240;1518;-51
2022/09/16 00:49:30;;;;;;;;;;;21.60;41.70;;;;;;491741;240;1273;-51
2022/09/16 00:51:31;;;;;;;;;;;21.60;41.80;;;;;;492203;240;1286;-50
2022/09/16 00:53:32;;;;;;;;;;;21.60;41.80;;;;;;491879;240;1258;-51
2022/09/16 00:55:34;;;;;;;;;;;21.60;41.70;;;;;;492027;240;2164;-51
2022/09/16 00:57:35;;;;;;;;;;;21.60;41.70;;;;;;492215;240;1256;-52
2022/09/16 00:59:36;;;;;;;;;;;21.60;41.70;;;;;;491864;240;1314;-50
2022/09/16 01:01:38;;;;;;;;;;;21.60;41.70;;;;;;491976;240;1384;-50
2022/09/16 01:03:39;;;;;;;;;;;21.60;41.60;;;;;;491875;240;1418;-51
2022/09/16 01:05:40;;;;;;;;;;;21.60;41.60;;;;;;492203;240;1166;-51
2022/09/16 01:07:42;;;;;;;;;;;21.70;41.60;;;;;;492225;240;1245;-50
2022/09/16 01:09:43;;;;;;;;;;;21.60;41.50;;;;;;491837;240;1075;-51
2022/09/16 01:11:44;;;;;;;;;;;21.60;41.50;;;;;;491834;240;1327;-50
2022/09/16 01:13:45;;;;;;;;;;;21.60;41.60;;;;;;492245;240;1069;-51
2022/09/16 01:15:47;;;;;;;;;;;21.60;41.60;;;;;;492163;240;2207;-51
2022/09/16 01:17:48;;;;;;;;;;;21.60;41.60;;;;;;492211;240;1092;-51
2022/09/16 01:19:49;;;;;;;;;;;21.60;41.70;;;;;;492247;240;1288;-51
2022/09/16 01:21:51;;;;;;;;;;;21.60;41.80;;;;;;491786;240;1214;-50
2022/09/16 01:23:52;;;;;;;;;;;21.60;41.80;;;;;;492236;240;1358;-50
2022/09/16 01:25:53;;;;;;;;;;;21.60;41.90;;;;;;491739;240;1249;-50
2022/09/16 01:27:55;;;;;;;;;;;21.60;41.80;;;;;;492229;240;1305;-51
2022/09/16 01:29:56;;;;;;;;;;;21.60;41.70;;;;;;492049;240;1129;-51
2022/09/16 01:31:57;;;;;;;;;;;21.60;41.70;;;;;;492241;240;1191;-52
2022/09/16 01:33:59;;;;;;;;;;;21.60;41.70;;;;;;492215;240;1319;-51
2022/09/16 01:36:00;;;;;;;;;;;21.60;41.80;;;;;;492224;240;2144;-51
2022/09/16 01:38:01;;;;;;;;;;;21.60;41.70;;;;;;492243;240;1064;-50
2022/09/16 01:40:03;;;;;;;;;;;21.60;41.70;;;;;;492203;240;1208;-51
2022/09/16 01:42:04;;;;;;;;;;;21.60;41.60;;;;;;491860;240;1198;-51
2022/09/16 01:44:05;;;;;;;;;;;21.60;41.70;;;;;;492226;240;1046;-51
2022/09/16 01:46:07;;;;;;;;;;;21.60;41.70;;;;;;492213;240;1251;-51
2022/09/16 01:48:08;;;;;;;;;;;21.60;41.70;;;;;;491989;240;1097;-51
2022/09/16 01:50:09;;;;;;;;;;;21.60;41.70;;;;;;492235;240;1074;-51
2022/09/16 01:52:11;;;;;;;;;;;21.60;41.60;;;;;;492234;240;1066;-50
2022/09/16 01:54:12;;;;;;;;;;;21.60;41.70;;;;;;492192;240;1092;-52
2022/09/16 01:56:13;;;;;;;;;;;21.60;41.70;;;;;;491753;240;2184;-52
2022/09/16 01:58:15;;;;;;;;;;;21.60;41.60;;;;;;491778;240;1113;-50
2022/09/16 02:00:16;;;;;;;;;;;21.60;41.70;;;;;;492230;240;1078;-51
2022/09/16 02:02:17;;;;;;;;;;;21.60;41.70;;;;;;492247;240;1062;-51
2022/09/16 02:04:19;;;;;;;;;;;21.60;41.60;;;;;;491939;240;1101;-51
2022/09/16 02:06:20;;;;;;;;;;;21.60;41.60;;;;;;492224;240;1028;-51
2022/09/16 02:08:21;;;;;;;;;;;21.60;41.60;;;;;;492234;240;1027;-52
2022/09/16 02:10:23;;;;;;;;;;;21.60;41.60;;;;;;492198;240;1256;-51
2022/09/16 02:12:24;;;;;;;;;;;21.60;41.60;;;;;;491878;240;1165;-51
2022/09/16 02:14:25;;;;;;;;;;;21.60;41.60;;;;;;492234;240;997;-50
2022/09/16 02:16:27;;;;;;;;;;;21.60;41.50;;;;;;491994;240;2152;-51
2022/09/16 02:18:28;;;;;;;;;;;21.60;41.50;;;;;;492180;240;1235;-51
2022/09/16 02:20:29;;;;;;;;;;;21.60;41.60;;;;;;491921;240;1294;-51
2022/09/16 02:22:31;;;;;;;;;;;21.60;41.50;;;;;;491834;240;1249;-51
2022/09/16 02:24:32;;;;;;;;;;;21.60;41.50;;;;;;492114;240;1288;-51
2022/09/16 02:26:33;;;;;;;;;;;21.60;41.50;;;;;;492078;240;1274;-50
2022/09/16 02:28:34;;;;;;;;;;;21.60;41.50;;;;;;492055;240;2023;-52
2022/09/16 02:30:36;;;;;;;;;;;21.60;41.50;;;;;;492215;240;1242;-51
2022/09/16 02:32:37;;;;;;;;;;;21.70;41.50;;;;;;492209;240;1320;-51
2022/09/16 02:34:38;;;;;;;;;;;21.60;41.30;;;;;;492224;240;1043;-50
2022/09/16 02:36:40;;;;;;;;;;;21.60;41.40;;;;;;492238;240;2156;-51
2022/09/16 02:38:41;;;;;;;;;;;21.60;41.40;;;;;;492248;240;1186;-50
2022/09/16 02:40:42;;;;;;;;;;;21.70;41.40;;;;;;492220;240;1121;-51
2022/09/16 02:42:44;;;;;;;;;;;21.60;41.40;;;;;;491859;240;1343;-51
2022/09/16 02:44:45;;;;;;;;;;;21.60;41.40;;;;;;492253;240;1038;-51
2022/09/16 02:46:46;;;;;;;;;;;21.60;41.30;;;;;;492014;240;1537;-51
2022/09/16 02:48:48;;;;;;;;;;;21.60;41.30;;;;;;491795;240;1139;-50
2022/09/16 02:50:49;;;;;;;;;;;21.60;41.30;;;;;;492168;240;1083;-51
2022/09/16 02:52:50;;;;;;;;;;;21.60;41.40;;;;;;492215;240;1359;-51
2022/09/16 02:54:52;;;;;;;;;;;21.60;41.40;;;;;;492179;240;1135;-51
2022/09/16 02:56:53;;;;;;;;;;;21.70;41.40;;;;;;492073;240;2165;-51
2022/09/16 02:58:54;;;;;;;;;;;21.60;41.40;;;;;;492207;240;1233;-51
2022/09/16 03:00:57;;;;;;;;;;;21.60;41.50;;;;;;492210;240;1236;-51
2022/09/16 03:02:57;;;;;;;;;;;21.60;41.60;;;;;;492180;240;1990;-51
2022/09/16 03:04:58;;;;;;;;;;;21.60;41.80;;;;;;491733;240;1221;-51
2022/09/16 03:07:00;;;;;;;;;;;21.50;41.80;;;;;;491917;240;1295;-51
2022/09/16 03:09:01;;;;;;;;;;;21.50;41.90;;;;;;491719;240;1323;-51
2022/09/16 03:11:02;;;;;;;;;;;21.50;41.90;;;;;;492203;240;1187;-51
2022/09/16 03:13:04;;;;;;;;;;;21.60;42.00;;;;;;491865;240;1261;-51
2022/09/16 03:15:05;;;;;;;;;;;21.50;42.00;;;;;;492206;240;1333;-51
2022/09/16 03:17:06;;;;;;;;;;;21.50;42.00;;;;;;492194;240;2191;-51
2022/09/16 03:19:08;;;;;;;;;;;21.50;42.10;;;;;;492205;240;1253;-51
2022/09/16 03:21:09;;;;;;;;;;;21.50;42.20;;;;;;492216;240;1157;-51
2022/09/16 03:23:10;;;;;;;;;;;21.50;42.20;;;;;;492208;240;1092;-51
2022/09/16 03:25:13;;;;;;;;;;;21.50;42.30;;;;;;492181;240;1123;-50
2022/09/16 03:27:13;;;;;;;;;;;21.50;42.30;;;;;;491755;240;1588;-51
2022/09/16 03:29:16;;;;;;;;;;;21.50;42.40;;;;;;492205;240;1118;-50
2022/09/16 03:31:16;;;;;;;;;;;21.50;42.40;;;;;;491979;240;2414;-50
2022/09/16 03:33:17;;;;;;;;;;;21.40;42.40;;;;;;492068;240;1101;-50
2022/09/16 03:35:18;;;;;;;;;;;21.40;42.50;;;;;;492220;240;1133;-50
2022/09/16 03:37:20;;;;;;;;;;;21.40;42.50;;;;;;491746;240;2164;-51
2022/09/16 03:39:21;;;;;;;;;;;21.40;42.60;;;;;;491941;240;1234;-50
2022/09/16 03:41:23;;;;;;;;;;;21.40;42.60;;;;;;492205;240;1171;-51
2022/09/16 03:43:24;;;;;;;;;;;21.50;42.70;;;;;;491885;240;1225;-50
2022/09/16 03:45:25;;;;;;;;;;;21.40;42.70;;;;;;492165;240;1288;-50
2022/09/16 03:47:27;;;;;;;;;;;21.40;42.70;;;;;;492173;240;1258;-51
2022/09/16 03:49:29;;;;;;;;;;;21.40;42.80;;;;;;491735;240;1344;-50
2022/09/16 03:51:29;;;;;;;;;;;21.50;42.80;;;;;;491895;240;2068;-50
2022/09/16 03:53:31;;;;;;;;;;;21.40;42.90;;;;;;492162;240;1362;-50
2022/09/16 03:55:32;;;;;;;;;;;21.40;42.90;;;;;;491632;240;1194;-50
2022/09/16 03:57:33;;;;;;;;;;;21.40;42.80;;;;;;491785;240;2152;-51
2022/09/16 03:59:35;;;;;;;;;;;21.50;42.90;;;;;;492154;240;1341;-51
2022/09/16 04:01:36;;;;;;;;;;;21.50;43.00;;;;;;492179;240;1233;-51
2022/09/16 04:03:37;;;;;;;;;;;21.40;43.00;;;;;;491900;240;1240;-52
2022/09/16 04:05:39;;;;;;;;;;;21.50;43.10;;;;;;491737;240;1348;-51
2022/09/16 04:07:40;;;;;;;;;;;21.40;43.00;;;;;;492185;240;1344;-50
2022/09/16 04:09:41;;;;;;;;;;;21.40;43.00;;;;;;491710;240;1183;-50
2022/09/16 04:11:42;;;;;;;;;;;21.50;43.10;;;;;;492200;240;1203;-51
2022/09/16 04:13:44;;;;;;;;;;;21.40;43.10;;;;;;491868;240;1177;-51
2022/09/16 04:15:45;;;;;;;;;;;21.50;43.20;;;;;;492168;240;1282;-50
2022/09/16 04:17:47;;;;;;;;;;;21.40;43.20;;;;;;492225;240;2149;-50
2022/09/16 04:19:48;;;;;;;;;;;21.50;43.20;;;;;;492062;240;1168;-51
2022/09/16 04:21:49;;;;;;;;;;;21.40;43.20;;;;;;492227;240;1286;-51
2022/09/16 04:23:50;;;;;;;;;;;21.40;43.30;;;;;;492238;240;1185;-50
2022/09/16 04:25:52;;;;;;;;;;;21.40;43.30;;;;;;492114;240;1229;-51
2022/09/16 04:27:53;;;;;;;;;;;21.40;43.30;;;;;;492078;240;1328;-51
2022/09/16 04:29:55;;;;;;;;;;;21.40;43.30;;;;;;492161;240;1230;-50
2022/09/16 04:31:56;;;;;;;;;;;21.50;43.40;;;;;;491741;240;1328;-51
2022/09/16 04:33:57;;;;;;;;;;;21.40;43.40;;;;;;492022;240;1225;-51
2022/09/16 04:35:58;;;;;;;;;;;21.50;43.40;;;;;;491761;240;1250;-51
2022/09/16 04:38:00;;;;;;;;;;;21.50;43.50;;;;;;491715;240;2168;-51
2022/09/16 04:40:01;;;;;;;;;;;21.40;43.40;;;;;;491721;240;1214;-50
2022/09/16 04:42:04;;;;;;;;;;;21.40;43.50;;;;;;492226;240;1141;-51
2022/09/16 04:44:04;;;;;;;;;;;21.40;43.50;;;;;;491902;240;1463;-51
2022/09/16 04:46:05;;;;;;;;;;;21.40;43.50;;;;;;491712;240;1143;-50
2022/09/16 04:48:06;;;;;;;;;;;21.40;43.60;;;;;;492048;240;1240;-51
2022/09/16 04:50:08;;;;;;;;;;;21.40;43.60;;;;;;492190;240;1122;-52
2022/09/16 04:52:10;;;;;;;;;;;21.40;43.70;;;;;;491615;240;1560;-51
2022/09/16 04:54:11;;;;;;;;;;;21.40;43.70;;;;;;491747;240;1118;-50
2022/09/16 04:56:14;;;;;;;;;;;21.40;43.70;;;;;;492019;240;1616;-51
2022/09/16 04:58:13;;;;;;;;;;;21.40;43.70;;;;;;491739;240;2177;-50
2022/09/16 05:00:15;;;;;;;;;;;21.40;43.70;;;;;;492026;240;1111;-51
2022/09/16 05:02:16;;;;;;;;;;;21.40;43.80;;;;;;492016;240;1308;-50
2022/09/16 05:04:18;;;;;;;;;;;21.40;43.70;;;;;;492164;240;1122;-51
2022/09/16 05:06:19;;;;;;;;;;;21.40;43.70;;;;;;491602;240;1469;-51
2022/09/16 05:08:20;;;;;;;;;;;21.50;43.80;;;;;;492073;240;1140;-50
2022/09/16 05:10:21;;;;;;;;;;;21.40;43.80;;;;;;491767;240;1089;-51
2022/09/16 05:12:23;;;;;;;;;;;21.40;43.80;;;;;;491719;240;1101;-51
2022/09/16 05:14:24;;;;;;;;;;;21.40;43.80;;;;;;491664;240;1348;-51
2022/09/16 05:16:26;;;;;;;;;;;21.50;43.90;;;;;;492180;240;1046;-52
2022/09/16 05:18:27;;;;;;;;;;;21.40;43.90;;;;;;492166;240;2125;-50
2022/09/16 05:20:28;;;;;;;;;;;21.40;43.90;;;;;;492166;240;1121;-50
2022/09/16 05:22:29;;;;;;;;;;;21.40;44.00;;;;;;491714;240;1105;-50
2022/09/16 05:24:31;;;;;;;;;;;21.40;44.10;;;;;;491704;240;1140;-50
2022/09/16 05:26:34;;;;;;;;;;;21.40;44.10;;;;;;492141;240;1049;-50
2022/09/16 05:28:33;;;;;;;;;;;21.40;44.10;;;;;;491703;240;2228;-52
2022/09/16 05:30:35;;;;;;;;;;;21.40;44.10;;;;;;491811;240;1047;-51
2022/09/16 05:32:36;;;;;;;;;;;21.50;43.90;;;;;;492171;240;1131;-51
2022/09/16 05:34:37;;;;;;;;;;;21.40;43.80;;;;;;491649;240;1133;-51
2022/09/16 05:36:39;;;;;;;;;;;21.50;43.80;;;;;;491715;240;1132;-51
2022/09/16 05:38:40;;;;;;;;;;;21.50;43.70;;;;;;492165;240;1329;-51
2022/09/16 05:40:41;;;;;;;;;;;21.50;43.70;;;;;;491852;240;1178;-51
2022/09/16 05:42:43;;;;;;;;;;;21.50;43.60;;;;;;491661;240;1182;-51
2022/09/16 05:44:44;;;;;;;;;;;21.50;43.60;;;;;;491831;240;1223;-51
2022/09/16 05:46:45;;;;;;;;;;;21.50;43.70;;;;;;492062;240;1206;-50
2022/09/16 05:48:47;;;;;;;;;;;21.50;43.60;;;;;;491942;240;1176;-51
2022/09/16 05:50:48;;;;;;;;;;;21.50;43.50;;;;;;492133;240;1180;-51
2022/09/16 05:52:49;;;;;;;;;;;21.50;43.50;;;;;;492086;240;1334;-51
2022/09/16 05:54:51;;;;;;;;;;;21.50;43.50;;;;;;492122;240;1168;-52
2022/09/16 05:56:52;;;;;;;;;;;21.50;43.40;;;;;;491577;240;2203;-51
2022/09/16 05:58:53;;;;;;;;;;;21.50;43.40;;;;;;491928;240;1166;-50
2022/09/16 06:00:55;;;;;;;;;;;21.50;43.30;;;;;;491733;240;1266;-50
2022/09/16 06:02:56;;;;;;;;;;;21.50;43.30;;;;;;491703;240;1477;-50
2022/09/16 06:04:58;;;;;;;;;;;21.60;43.30;;;;;;491993;240;1211;-50
2022/09/16 06:07:00;;;;;;;;;;;21.50;43.30;;;;;;492011;240;1168;-51
2022/09/16 06:09:00;;;;;;;;;;;21.50;43.30;;;;;;491708;240;2146;-51
2022/09/16 06:11:01;;;;;;;;;;;21.50;43.60;;;;;;491642;240;1210;-51
2022/09/16 06:13:03;;;;;;;;;;;21.50;43.50;;;;;;492087;240;1204;-51
2022/09/16 06:15:05;;;;;;;;;;;21.50;43.50;;;;;;491606;240;1198;-51
2022/09/16 06:17:05;;;;;;;;;;;21.50;43.40;;;;;;492027;240;2245;-50
2022/09/16 06:19:09;;;;;;;;;;;21.50;43.40;;;;;;491879;240;1160;-51
2022/09/16 06:21:08;;;;;;;;;;;21.50;43.50;;;;;;491653;240;2270;-50
2022/09/16 06:23:09;;;;;;;;;;;21.50;43.50;;;;;;491606;240;1117;-50
2022/09/16 06:25:11;;;;;;;;;;;21.50;43.40;;;;;;491697;240;1152;-51
2022/09/16 06:27:12;;;;;;;;;;;21.50;43.30;;;;;;491663;240;1174;-50
2022/09/16 06:29:14;;;;;;;;;;;21.50;43.30;;;;;;492005;240;1415;-51
2022/09/16 06:31:15;;;;;;;;;;;21.60;43.40;;;;;;492139;240;1218;-50
2022/09/16 06:33:16;;;;;;;;;;;21.60;43.30;;;;;;492035;240;1282;-50
2022/09/16 06:35:18;;;;;;;;;;;21.60;43.30;;;;;;491898;240;1088;-51
2022/09/16 06:37:19;;;;;;;;;;;21.60;43.30;;;;;;491833;240;2133;-50
2022/09/16 06:39:22;;;;;;;;;;;21.60;43.20;;;;;;491899;240;1206;-51
2022/09/16 06:41:22;;;;;;;;;;;21.60;43.30;;;;;;491560;240;2298;-51
2022/09/16 06:43:23;;;;;;;;;;;21.60;43.30;;;;;;492056;240;1073;-51
2022/09/16 06:45:24;;;;;;;;;;;21.60;43.30;;;;;;491762;240;1196;-50
2022/09/16 06:47:26;;;;;;;;;;;21.60;43.30;;;;;;491719;240;1221;-51
2022/09/16 06:49:27;;;;;;;;;;;21.70;43.20;;;;;;491718;240;1265;-51
2022/09/16 06:51:28;;;;;;;;;;;21.70;43.20;;;;;;491589;240;1149;-50
2022/09/16 06:53:30;;;;;;;;;;;21.70;43.30;;;;;;491527;240;1128;-51
2022/09/16 06:55:31;;;;;;;;;;;21.60;43.10;;;;;;491848;240;1197;-50
2022/09/16 06:57:32;;;;;;;;;;;21.70;43.20;;;;;;491537;240;2180;-50
2022/09/16 06:59:34;;;;;;;;;;;21.70;43.20;;;;;;491590;240;1275;-50
2022/09/16 07:01:35;;;;;;;;;;;21.70;43.30;;;;;;492034;240;1276;-50
2022/09/16 07:03:36;;;;;;;;;;;21.70;43.30;;;;;;491891;240;1230;-50
2022/09/16 07:05:38;;;;;;;;;;;21.70;43.10;;;;;;491985;240;1213;-50
2022/09/16 07:07:39;;;;;;;;;;;21.70;43.10;;;;;;491471;240;1097;-50
2022/09/16 07:09:40;;;;;;;;;;;21.70;43.10;;;;;;491683;240;1222;-50
2022/09/16 07:11:42;;;;;;;;;;;21.70;43.10;;;;;;491714;240;1219;-51
2022/09/16 07:13:43;;;;;;;;;;;21.70;43.20;;;;;;492019;240;1218;-50
2022/09/16 07:15:44;;;;;;;;;;;21.80;43.10;;;;;;491780;240;1182;-50
2022/09/16 07:17:46;;;;;;;;;;;21.80;43.20;;;;;;491630;240;2216;-51
2022/09/16 07:19:48;;;;;;;;;;;21.80;43.20;;;;;;492002;240;1371;-51
2022/09/16 07:21:49;;;;;;;;;;;21.80;43.20;;;;;;491604;240;2071;-49
2022/09/16 07:23:50;;;;;;;;;;;21.70;43.20;;;;;;492031;240;1207;-50
2022/09/16 07:25:51;;;;;;;;;;;21.70;43.20;;;;;;491753;240;1187;-50
2022/09/16 07:27:53;;;;;;;;;;;21.70;43.20;;;;;;491537;240;1219;-50
2022/09/16 07:29:55;;;;;;;;;;;21.80;43.30;;;;;;491581;240;1211;-50
2022/09/16 07:31:55;;;;;;;;;;;21.70;43.30;;;;;;491556;240;2190;-50
2022/09/16 07:33:57;;;;;;;;;;;21.70;43.40;;;;;;491762;240;1527;-51
2022/09/16 07:35:58;;;;;;;;;;;21.70;43.40;;;;;;491866;240;1255;-50
2022/09/16 07:38:00;;;;;;;;;;;21.80;43.50;;;;;;491785;240;2188;-51
2022/09/16 07:40:01;;;;;;;;;;;21.80;43.40;;;;;;492002;240;1286;-51
2022/09/16 07:42:03;;;;;;;;;;;21.70;43.50;;;;;;491831;240;1146;-50
2022/09/16 07:44:04;;;;;;;;;;;21.70;43.60;;;;;;491939;240;1300;-51
2022/09/16 07:46:05;;;;;;;;;;;21.70;43.70;;;;;;491634;240;1224;-51
2022/09/16 07:48:06;;;;;;;;;;;21.70;43.70;;;;;;491442;240;1221;-50
2022/09/16 07:50:07;;;;;;;;;;;21.80;43.80;;;;;;491560;240;1301;-50
2022/09/16 07:52:09;;;;;;;;;;;21.80;43.60;;;;;;491575;240;1170;-51
2022/09/16 07:54:10;;;;;;;;;;;21.70;43.60;;;;;;491657;240;1221;-50
2022/09/16 07:56:11;;;;;;;;;;;21.80;43.70;;;;;;491566;240;1070;-50
2022/09/16 07:58:13;;;;;;;;;;;21.80;43.70;;;;;;491562;240;2180;-50
2022/09/16 08:00:15;;;;;;;;;;;21.80;43.70;;;;;;491563;240;1114;-51
2022/09/16 08:02:16;;;;;;;;;;;21.80;43.70;;;;;;491787;240;1280;-50
2022/09/16 08:04:17;;;;;;;;;;;21.70;43.70;;;;;;491981;240;1177;-50
2022/09/16 08:06:19;;;;;;;;;;;21.80;43.70;;;;;;491828;240;1189;-50
2022/09/16 08:08:20;;;;;;;;;;;21.80;43.80;;;;;;491810;240;1253;-51
2022/09/16 08:10:21;;;;;;;;;;;21.80;43.70;;;;;;491917;240;1196;-50
2022/09/16 08:12:23;;;;;;;;;;;21.80;43.80;;;;;;491559;240;1141;-50
2022/09/16 08:14:24;;;;;;;;;;;21.80;43.80;;;;;;491496;240;1266;-50
2022/09/16 08:16:25;;;;;;;;;;;21.80;43.70;;;;;;491656;240;1271;-50
2022/09/16 08:18:27;;;;;;;;;;;21.80;43.80;;;;;;491525;240;2192;-51
2022/09/16 08:20:28;;;;;;;;;;;21.80;43.80;;;;;;491933;240;1264;-50
2022/09/16 08:22:29;;;;;;;;;;;21.80;43.90;;;;;;491939;240;1126;-50
2022/09/16 08:24:31;;;;;;;;;;;21.80;43.80;;;;;;491444;240;1142;-50
2022/09/16 08:26:32;;;;;;;;;;;21.80;43.80;;;;;;491901;240;1150;-50
2022/09/16 08:28:34;;;;;;;;;;;21.80;43.80;;;;;;491503;240;1218;-51
2022/09/16 08:30:35;;;;;;;;;;;21.80;43.80;;;;;;491393;240;1205;-50
2022/09/16 08:32:36;;;;;;;;;;;21.80;43.80;;;;;;491566;240;1428;-50
2022/09/16 08:34:38;;;;;;;;;;;21.80;43.80;;;;;;491690;240;1303;-51
2022/09/16 08:36:39;;;;;;;;;;;21.80;43.80;;;;;;491914;240;1118;-50
2022/09/16 08:38:40;;;;;;;;;;;21.80;43.70;;;;;;491735;240;2144;-51
2022/09/16 08:40:42;;;;;;;;;;;21.80;43.70;;;;;;491568;240;1087;-50
2022/09/16 08:42:43;;;;;;;;;;;21.80;43.80;;;;;;491450;240;1250;-50
2022/09/16 08:44:44;;;;;;;;;;;21.70;43.90;;;;;;491535;240;1111;-50
2022/09/16 08:46:46;;;;;;;;;;;21.80;44.00;;;;;;491726;240;1236;-50
2022/09/16 08:48:47;;;;;;;;;;;21.80;43.90;;;;;;491803;240;1207;-51
2022/09/16 08:50:48;;;;;;;;;;;21.80;44.00;;;;;;491505;240;1319;-51
2022/09/16 08:52:50;;;;;;;;;;;21.70;44.00;;;;;;491536;240;1221;-50
2022/09/16 08:54:51;;;;;;;;;;;21.80;43.90;;;;;;491519;240;1498;-50
2022/09/16 08:56:52;;;;;;;;;;;21.80;43.90;;;;;;491667;240;1158;-50
2022/09/16 08:58:54;;;;;;;;;;;21.80;44.00;;;;;;491785;240;2176;-50
2022/09/16 09:00:55;;;;;;;;;;;21.80;43.90;;;;;;491532;240;1289;-51
2022/09/16 09:02:57;;;;;;;;;;;21.80;43.80;;;;;;491711;240;1070;-50
2022/09/16 09:04:58;;;;;;;;;;;21.80;43.80;;;;;;491728;240;1188;-50
2022/09/16 09:06:59;;;;;;;;;;;21.80;43.90;;;;;;491497;240;1306;-50
2022/09/16 09:09:00;;;;;;;;;;;21.80;43.90;;;;;;491637;240;1199;-51
2022/09/16 09:11:02;;;;;;;;;;;21.80;43.90;;;;;;491975;240;1208;-50
2022/09/16 09:13:03;;;;;;;;;;;21.80;43.90;;;;;;491477;240;1276;-50
2022/09/16 09:15:05;;;;;;;;;;;21.80;43.90;;;;;;491446;240;1207;-50
2022/09/16 09:17:06;;;;;;;;;;;21.80;43.90;;;;;;491621;240;1246;-51
2022/09/16 09:19:07;;;;;;;;;;;21.80;43.90;;;;;;491644;240;2168;-50
2022/09/16 09:21:08;;;;;;;;;;;21.80;44.00;;;;;;491463;240;1243;-51
2022/09/16 09:23:10;;;;;;;;;;;21.80;44.00;;;;;;491497;240;1215;-50
2022/09/16 09:25:11;;;;;;;;;;;21.80;44.00;;;;;;491755;240;1681;-50
2022/09/16 09:27:12;;;;;;;;;;;21.80;44.00;;;;;;491628;240;1225;-50
2022/09/16 09:29:14;;;;;;;;;;;21.80;43.90;;;;;;491633;240;1186;-49
2022/09/16 09:31:15;;;;;;;;;;;21.80;44.00;;;;;;491972;240;1272;-51
2022/09/16 09:33:16;;;;;;;;;;;21.80;44.00;;;;;;491625;240;1232;-51
2022/09/16 09:35:18;;;;;;;;;;;21.80;44.00;;;;;;491444;240;1289;-50
2022/09/16 09:37:19;;;;;;;;;;;21.80;44.10;;;;;;492003;240;1185;-50
2022/09/16 09:39:20;;;;;;;;;;;21.80;44.10;;;;;;491260;240;2144;-50
2022/09/16 09:41:22;;;;;;;;;;;21.80;44.20;;;;;;491703;240;1162;-51
2022/09/16 09:43:23;;;;;;;;;;;21.80;44.30;;;;;;491784;240;1255;-50
2022/09/16 09:45:25;;;;;;;;;;;21.80;44.20;;;;;;491705;240;1189;-50
2022/09/16 09:47:26;;;;;;;;;;;21.80;44.20;;;;;;491691;240;1429;-50
2022/09/16 09:49:27;;;;;;;;;;;21.80;44.20;;;;;;491471;240;1334;-50
2022/09/16 09:51:29;;;;;;;;;;;21.80;44.30;;;;;;491350;240;1248;-51
2022/09/16 09:53:30;;;;;;;;;;;21.80;44.10;;;;;;491562;240;1249;-50
2022/09/16 09:55:31;;;;;;;;;;;21.90;44.20;;;;;;491901;240;1236;-50
2022/09/16 09:57:33;;;;;;;;;;;21.80;44.10;;;;;;491367;240;1581;-51
2022/09/16 09:59:34;;;;;;;;;;;21.80;44.10;;;;;;491652;240;2168;-50
2022/09/16 10:01:35;;;;;;;;;;;21.80;44.10;;;;;;491449;240;1845;-50
2022/09/16 10:03:39;;;;;;;;;;;21.90;44.10;;;;;;491745;240;1284;-51
2022/09/16 10:05:38;;;;;;;;;;;21.90;44.10;;;;;;491515;240;2052;-51
2022/09/16 10:07:39;;;;;;;;;;;21.90;44.10;;;;;;491476;240;1343;-49
2022/09/16 10:09:42;;;;;;;;;;;21.90;44.20;;;;;;491840;240;1187;-50
2022/09/16 10:11:42;;;;;;;;;;;21.80;44.20;;;;;;491517;240;2484;-50
2022/09/16 10:13:44;;;;;;;;;;;21.90;44.20;;;;;;491522;240;1502;-51
2022/09/16 10:15:45;;;;;;;;;;;21.90;44.10;;;;;;491643;240;1225;-51
2022/09/16 10:17:46;;;;;;;;;;;21.90;44.10;;;;;;491488;240;1217;-50
2022/09/16 10:19:47;;;;;;;;;;;21.90;44.00;;;;;;491518;240;2204;-51
2022/09/16 10:21:49;;;;;;;;;;;21.90;44.00;;;;;;491549;240;1285;-50
2022/09/16 10:23:50;;;;;;;;;;;21.90;44.10;;;;;;491705;240;2435;-52
2022/09/16 10:25:51;;;;;;;;;;;21.90;44.10;;;;;;491677;240;1266;-50
2022/09/16 10:27:53;;;;;;;;;;;21.90;44.00;;;;;;491405;240;1205;-50
2022/09/16 10:29:54;;;;;;;;;;;21.90;44.00;;;;;;491437;240;1259;-51
2022/09/16 10:31:58;;;;;;;;;;;21.90;44.00;;;;;;491565;240;1261;-50
2022/09/16 10:33:57;;;;;;;;;;;21.90;44.00;;;;;;491974;240;1359;-51
2022/09/16 10:35:59;;;;;;;;;;;22.00;43.90;;;;;;491630;240;1157;-50
2022/09/16 10:37:59;;;;;;;;;;;21.90;43.90;;;;;;491464;240;2187;-50
2022/09/16 10:40:04;;;;;;;;;;;21.90;43.80;;;;;;491540;240;2133;-51
2022/09/16 10:42:02;;;;;;;;;;;21.90;43.90;;;;;;491513;240;2360;-51
2022/09/16 10:44:04;;;;;;;;;;;21.90;43.90;;;;;;491829;240;1254;-51
2022/09/16 10:46:05;;;;;;;;;;;21.90;43.90;;;;;;491470;240;1201;-51
2022/09/16 10:48:07;;;;;;;;;;;22.00;43.90;;;;;;491695;240;1113;-50
2022/09/16 10:50:08;;;;;;;;;;;21.90;43.80;;;;;;491781;240;1205;-51
2022/09/16 10:52:09;;;;;;;;;;;21.90;43.70;;;;;;491815;240;1198;-51
2022/09/16 10:54:11;;;;;;;;;;;21.90;43.80;;;;;;491686;240;1315;-50
2022/09/16 10:56:12;;;;;;;;;;;21.90;43.80;;;;;;491665;240;1252;-50
2022/09/16 10:58:13;;;;;;;;;;;21.90;43.80;;;;;;491584;240;1320;-50
2022/09/16 11:00:15;;;;;;;;;;;21.90;43.70;;;;;;491595;240;2144;-50
2022/09/16 11:02:16;;;;;;;;;;;21.90;43.80;;;;;;491970;240;1206;-50
2022/09/16 11:04:17;;;;;;;;;;;21.90;43.80;;;;;;491966;240;1193;-50
2022/09/16 11:06:19;;;;;;;;;;;21.90;43.80;;;;;;491717;240;1116;-50
2022/09/16 11:08:20;;;;;;;;;;;21.90;43.70;;;;;;491679;240;1172;-50
2022/09/16 11:10:22;;;;;;;;;;;21.90;43.70;;;;;;491975;240;1035;-50
2022/09/16 11:12:23;;;;;;;;;;;21.90;43.70;;;;;;491757;240;1071;-50
2022/09/16 11:14:25;;;;;;;;;;;21.90;43.70;;;;;;491572;240;1044;-51
2022/09/16 11:16:26;;;;;;;;;;;22.00;43.80;;;;;;491836;240;1207;-50
2022/09/16 11:18:27;;;;;;;;;;;21.90;43.70;;;;;;491706;240;1208;-51
2022/09/16 11:20:29;;;;;;;;;;;21.90;43.70;;;;;;491821;240;2192;-51
2022/09/16 11:22:30;;;;;;;;;;;21.90;43.70;;;;;;491586;240;1204;-50
2022/09/16 11:24:31;;;;;;;;;;;21.90;43.70;;;;;;491753;240;1173;-51
2022/09/16 11:26:34;;;;;;;;;;;22.00;43.80;;;;;;491964;240;1135;-50
2022/09/16 11:28:34;;;;;;;;;;;21.90;43.70;;;;;;491444;240;1760;-51
2022/09/16 11:30:36;;;;;;;;;;;21.90;43.60;;;;;;491551;240;1231;-51
2022/09/16 11:32:37;;;;;;;;;;;21.90;43.60;;;;;;491488;240;2223;-51
2022/09/16 11:34:38;;;;;;;;;;;21.90;43.60;;;;;;491785;240;1275;-50
2022/09/16 11:36:39;;;;;;;;;;;21.90;43.60;;;;;;491649;240;1122;-51
2022/09/16 11:38:41;;;;;;;;;;;21.90;43.70;;;;;;492035;240;1199;-51
2022/09/16 11:40:42;;;;;;;;;;;21.90;43.80;;;;;;491693;240;2133;-51
2022/09/16 11:42:43;;;;;;;;;;;21.90;43.80;;;;;;492090;240;1146;-52
2022/09/16 11:44:45;;;;;;;;;;;21.80;43.70;;;;;;491768;240;1194;-51
2022/09/16 11:46:46;;;;;;;;;;;21.80;43.70;;;;;;491599;240;1068;-51
2022/09/16 11:48:48;;;;;;;;;;;21.80;43.80;;;;;;491752;240;1216;-50
2022/09/16 11:50:49;;;;;;;;;;;21.80;43.80;;;;;;491912;240;1082;-50
2022/09/16 11:52:50;;;;;;;;;;;21.80;43.80;;;;;;492018;240;1082;-50
2022/09/16 11:54:52;;;;;;;;;;;21.80;43.90;;;;;;491892;240;1060;-51
2022/09/16 11:56:53;;;;;;;;;;;21.80;43.80;;;;;;491931;240;1167;-51